Time;durP1;ratioP1;P1;durP2;ratioP2;P2;SDS_P1;SDS_P2;PMS_P1;PMS_P2;Temp;Humidity;BMP_temperature;BMP_pressure;BME280_temperature;BME280_humidity;BME280_pressure;Samples;Min_cycle;Max_cycle;Signal;HPM_P1;HPM_P2
2022/03/03 00:02:02;;;;;;;9.90;6.87;;;;;;;1.94;73.37;96801.22;5050492;28;20208;-96
2022/03/03 00:05:08;;;;;;;10.63;7.00;;;;;;;1.68;74.00;96750.56;5079326;28;20624;-95
2022/03/03 00:07:49;;;;;;;11.53;7.50;;;;;;;2.19;73.02;96817.78;5042051;28;20193;-94
2022/03/03 00:19:34;;;;;;;10.13;6.67;;;;;;;2.35;70.52;96809.84;5049593;28;20230;-96
2022/03/03 00:27:34;;;;;;;11.57;7.27;;;;;;;2.41;70.29;96802.06;5011893;28;20205;-93
2022/03/03 00:30:28;;;;;;;9.50;6.73;;;;;;;2.36;69.42;96787.69;4990153;28;20742;-94
2022/03/03 00:33:13;;;;;;;10.57;7.60;;;;;;;1.81;70.77;96713.78;5030392;28;20193;-94
2022/03/03 00:35:59;;;;;;;11.80;7.73;;;;;;;2.18;70.45;96778.66;5035172;28;20201;-95
2022/03/03 00:38:44;;;;;;;12.03;7.83;;;;;;;2.08;70.81;96781.38;5021978;28;20275;-94
2022/03/03 00:42:03;;;;;;;11.20;7.10;;;;;;;2.29;69.35;96794.63;5052244;28;20237;-94
2022/03/03 00:45:33;;;;;;;12.90;7.10;;;;;;;2.34;68.92;96795.41;5068245;28;20269;-93
2022/03/03 00:48:29;;;;;;;11.97;7.00;;;;;;;2.31;69.24;96792.88;5059380;28;20261;-94
2022/03/03 00:51:06;;;;;;;10.27;7.07;;;;;;;1.92;69.30;96713.56;5084640;28;20208;-94
2022/03/03 00:53:37;;;;;;;14.10;7.37;;;;;;;2.40;69.82;96786.78;5055185;28;20257;-94
2022/03/03 00:56:10;;;;;;;12.40;7.57;;;;;;;2.30;68.37;96759.72;5071501;28;20177;-93
2022/03/03 00:58:46;;;;;;;10.00;6.87;;;;;;;2.46;67.50;96773.88;5056031;28;20261;-92
2022/03/03 01:01:27;;;;;;;8.97;7.13;;;;;;;2.52;68.47;96778.88;5045959;28;20233;-92
2022/03/03 01:04:13;;;;;;;13.07;7.13;;;;;;;2.49;67.83;96771.28;5006520;28;20200;-93
2022/03/03 01:06:48;;;;;;;12.00;7.00;;;;;;;2.33;67.39;96747.72;5005355;28;20257;-93
2022/03/03 01:09:25;;;;;;;12.27;7.80;;;;;;;2.50;67.42;96770.41;5032667;28;20204;-94
2022/03/03 01:12:37;;;;;;;14.77;7.60;;;;;;;2.35;66.69;96729.78;5038200;28;20212;-93
2022/03/03 01:15:28;;;;;;;10.83;7.27;;;;;;;2.53;67.66;96772.06;5015712;28;20200;-94
2022/03/03 01:18:14;;;;;;;11.07;7.00;;;;;;;2.39;68.15;96772.31;5031184;28;20255;-92
2022/03/03 01:20:44;;;;;;;10.97;7.10;;;;;;;1.90;68.12;96695.72;5001126;28;20553;-93
2022/03/03 01:23:35;;;;;;;11.43;7.20;;;;;;;2.03;69.62;96727.00;5047798;28;20204;-93
2022/03/03 01:26:14;;;;;;;9.73;7.17;;;;;;;1.93;69.99;96728.88;5034956;28;20247;-92
2022/03/03 01:28:42;;;;;;;11.20;7.20;;;;;;;1.84;71.62;96731.56;5031700;28;20194;-93
2022/03/03 01:31:12;;;;;;;12.50;8.13;;;;;;;1.84;72.92;96725.63;4998225;28;20229;-93
2022/03/03 01:33:41;;;;;;;13.30;8.40;;;;;;;1.95;73.42;96754.38;5015758;28;20226;-93
2022/03/03 01:36:09;;;;;;;12.00;7.53;;;;;;;1.89;74.69;96747.66;5032323;28;20202;-94
2022/03/03 01:38:39;;;;;;;12.37;7.90;;;;;;;1.70;74.73;96733.50;5016576;28;20198;-94
2022/03/03 01:41:08;;;;;;;12.70;8.03;;;;;;;1.37;74.47;96672.81;5030868;28;20399;-94
2022/03/03 01:43:37;;;;;;;11.20;7.90;;;;;;;1.61;74.15;96698.78;5016635;28;20259;-94
2022/03/03 01:46:20;;;;;;;11.17;7.63;;;;;;;1.72;73.64;96720.72;5031593;28;20205;-93
2022/03/03 01:48:48;;;;;;;11.67;7.60;;;;;;;1.86;73.66;96728.97;4999577;28;20200;-94
2022/03/03 01:51:19;;;;;;;10.50;7.97;;;;;;;1.67;72.76;96701.22;5001136;28;20217;-94
2022/03/03 01:53:49;;;;;;;11.73;8.60;;;;;;;1.67;73.05;96704.66;4999194;28;20208;-92
2022/03/03 01:56:21;;;;;;;11.07;7.30;;;;;;;1.89;73.29;96741.72;5032728;28;20193;-94
2022/03/03 01:58:55;;;;;;;11.17;7.33;;;;;;;1.71;73.00;96719.88;5016254;28;20200;-95
2022/03/03 02:01:23;;;;;;;14.07;8.10;;;;;;;1.74;73.61;96704.53;4999268;28;20312;-94
2022/03/03 02:04:07;;;;;;;14.27;8.60;;;;;;;1.86;72.97;96734.09;5017317;28;20201;-94
2022/03/03 02:06:37;;;;;;;12.30;7.53;;;;;;;1.73;72.74;96720.72;5004466;28;20220;-94
2022/03/03 02:09:05;;;;;;;11.47;7.13;;;;;;;1.58;72.66;96693.75;5033700;28;20194;-94
2022/03/03 02:11:35;;;;;;;10.20;7.00;;;;;;;1.78;72.57;96728.28;5015915;28;20194;-93
2022/03/03 02:14:04;;;;;;;11.93;7.60;;;;;;;1.82;71.06;96735.84;5017150;28;20201;-91
2022/03/03 02:16:33;;;;;;;9.87;7.07;;;;;;;1.77;70.73;96714.69;5003536;28;20209;-92
2022/03/03 02:19:02;;;;;;;9.47;7.10;;;;;;;1.89;71.04;96734.06;5002242;28;20231;-92
2022/03/03 02:21:32;;;;;;;10.10;7.50;;;;;;;1.67;70.18;96687.63;5017913;28;20225;-92
2022/03/03 02:24:00;;;;;;;10.47;7.20;;;;;;;1.95;69.85;96718.63;5020386;28;20217;-91
2022/03/03 02:26:30;;;;;;;11.50;7.73;;;;;;;1.86;70.24;96719.63;5021060;28;20193;-93
2022/03/03 02:28:59;;;;;;;11.00;7.07;;;;;;;1.65;70.17;96689.34;5004274;28;20586;-92
2022/03/03 02:31:27;;;;;;;9.73;6.57;;;;;;;1.67;70.99;96683.34;5048839;28;20244;-91
2022/03/03 02:34:00;;;;;;;11.30;7.57;;;;;;;1.74;71.89;96714.72;5039227;28;20196;-91
2022/03/03 02:36:35;;;;;;;10.73;7.17;;;;;;;1.88;71.76;96734.91;5070670;28;20260;-89
2022/03/03 02:39:06;;;;;;;9.83;6.70;;;;;;;1.88;72.19;96740.00;5040993;28;20206;-89
2022/03/03 02:41:37;;;;;;;9.67;6.97;;;;;;;1.42;72.60;96666.75;5078379;28;20228;-92
2022/03/03 02:44:06;;;;;;;10.47;6.67;;;;;;;1.85;72.37;96734.97;5059551;28;20200;-90
2022/03/03 02:46:37;;;;;;;9.83;7.20;;;;;;;1.83;72.53;96737.56;5059279;28;20254;-90
2022/03/03 02:49:05;;;;;;;9.77;6.60;;;;;;;1.83;73.21;96736.72;5057709;28;20200;-89
2022/03/03 02:51:32;;;;;;;9.83;7.33;;;;;;;1.82;72.77;96730.75;5060006;28;20287;-89
2022/03/03 02:54:03;;;;;;;11.03;6.97;;;;;;;1.76;73.04;96717.25;5061219;28;20199;-90
2022/03/03 02:56:30;;;;;;;13.30;6.93;;;;;;;1.61;72.62;96693.66;5061138;28;20283;-90
2022/03/03 02:58:58;;;;;;;10.33;7.03;;;;;;;1.80;72.68;96729.94;5076771;28;20253;-91
2022/03/03 03:01:30;;;;;;;12.03;6.67;;;;;;;1.83;72.51;96719.69;5026849;28;20799;-91
2022/03/03 03:03:59;;;;;;;9.93;7.20;;;;;;;1.95;71.13;96739.06;5060371;28;20288;-90
2022/03/03 03:06:28;;;;;;;11.30;6.83;;;;;;;2.02;71.41;96740.66;5061333;28;20204;-91
2022/03/03 03:08:56;;;;;;;8.07;6.13;;;;;;;2.07;71.26;96739.69;5059741;28;20196;-90
2022/03/03 03:11:25;;;;;;;10.33;6.90;;;;;;;1.94;70.33;96712.66;5060685;28;20239;-90
2022/03/03 03:13:54;;;;;;;9.73;7.03;;;;;;;2.02;70.32;96705.72;5026513;28;20270;-90
2022/03/03 03:16:22;;;;;;;11.33;7.47;;;;;;;1.82;69.97;96689.06;5061175;28;20202;-92
2022/03/03 03:18:52;;;;;;;11.57;7.17;;;;;;;2.10;70.16;96718.38;5057762;28;20180;-92
2022/03/03 03:21:21;;;;;;;10.70;7.47;;;;;;;2.04;70.31;96724.41;5057936;28;20239;-91
2022/03/03 03:23:49;;;;;;;11.30;7.30;;;;;;;2.01;70.29;96705.75;5057492;28;20219;-90
2022/03/03 03:26:19;;;;;;;14.80;8.37;;;;;;;2.02;70.82;96721.03;5058536;28;20697;-90
2022/03/03 03:28:49;;;;;;;10.03;6.80;;;;;;;1.89;70.28;96688.09;5059867;28;20204;-93
2022/03/03 03:31:18;;;;;;;10.23;7.40;;;;;;;2.02;70.94;96715.13;5058423;28;20319;-90
2022/03/03 03:33:45;;;;;;;11.07;7.00;;;;;;;2.01;70.16;96710.84;5061184;28;20223;-89
2022/03/03 03:36:15;;;;;;;10.03;6.67;;;;;;;2.16;69.96;96725.91;5074395;28;20524;-89
2022/03/03 03:38:42;;;;;;;12.23;8.07;;;;;;;2.18;69.74;96717.38;5044511;28;20201;-93
2022/03/03 03:41:10;;;;;;;10.90;6.97;;;;;;;2.07;70.30;96709.03;5061390;28;20220;-93
2022/03/03 03:43:40;;;;;;;11.80;8.07;;;;;;;1.86;69.14;96670.28;5085112;28;20253;-90
2022/03/03 03:46:11;;;;;;;9.73;6.60;;;;;;;2.11;69.69;96704.72;5052386;28;20212;-92
2022/03/03 03:48:39;;;;;;;11.03;6.53;;;;;;;2.03;69.64;96691.25;5069671;28;20202;-90
2022/03/03 03:51:07;;;;;;;11.83;6.83;;;;;;;2.24;68.91;96727.47;5047720;28;20200;-91
2022/03/03 03:53:36;;;;;;;10.70;7.20;;;;;;;2.06;68.64;96696.31;5061890;28;20740;-92
2022/03/03 03:56:05;;;;;;;7.93;6.37;;;;;;;2.16;67.85;96692.72;5061430;28;20207;-92
2022/03/03 03:58:34;;;;;;;11.97;7.03;;;;;;;2.32;67.83;96714.53;5044299;28;20192;-91
2022/03/03 04:01:03;;;;;;;11.77;7.67;;;;;;;2.20;67.06;96681.56;5062207;28;20587;-92
2022/03/03 04:03:31;;;;;;;10.17;6.53;;;;;;;2.42;67.52;96708.38;5041686;28;20220;-92
2022/03/03 04:06:05;;;;;;;9.43;6.90;;;;;;;2.35;66.22;96694.88;5078807;28;20188;-93
2022/03/03 04:08:34;;;;;;;12.23;7.97;;;;;;;2.45;66.47;96711.72;5042828;28;20200;-91
2022/03/03 04:11:03;;;;;;;10.30;7.53;;;;;;;2.09;66.45;96633.25;5060778;28;20283;-92
2022/03/03 04:13:32;;;;;;;12.27;7.40;;;;;;;2.41;67.19;96688.81;5076886;28;20752;-92
2022/03/03 04:16:10;;;;;;;10.87;7.07;;;;;;;2.26;67.13;96659.31;5043866;28;20283;-90
2022/03/03 04:18:37;;;;;;;11.03;7.40;;;;;;;2.60;66.57;96707.19;5074677;28;20224;-91
2022/03/03 04:21:45;;;;;;;10.93;7.40;;;;;;;2.46;66.29;96692.97;5055113;28;20224;-91
2022/03/03 04:25:06;;;;;;;12.07;7.97;;;;;;;1.93;67.25;96606.31;5072704;28;20193;-91
2022/03/03 04:28:30;;;;;;;13.33;8.07;;;;;;;2.48;67.98;96700.59;5044842;28;20275;-90
2022/03/03 04:31:53;;;;;;;11.03;7.40;;;;;;;2.43;67.98;96699.84;5074112;28;20236;-90
2022/03/03 04:35:18;;;;;;;13.40;8.27;;;;;;;2.44;67.90;96701.53;5058216;28;20193;-91
2022/03/03 04:38:39;;;;;;;12.37;7.97;;;;;;;2.26;68.10;96681.44;5040117;28;20594;-91
2022/03/03 04:42:00;;;;;;;13.00;7.90;;;;;;;2.19;67.86;96677.31;5074586;28;20219;-92
2022/03/03 04:45:26;;;;;;;14.47;7.50;;;;;;;2.33;67.54;96690.66;5041916;28;20242;-91
2022/03/03 04:48:48;;;;;;;11.87;7.43;;;;;;;2.33;67.36;96694.06;5052130;28;20192;-95
2022/03/03 04:52:09;;;;;;;11.87;7.90;;;;;;;2.37;68.08;96689.75;5044738;28;20291;-93
2022/03/03 04:55:30;;;;;;;14.77;8.40;;;;;;;2.35;68.11;96681.25;5056768;28;20249;-91
2022/03/03 04:58:52;;;;;;;16.07;8.63;;;;;;;2.26;68.22;96659.31;5061971;28;20548;-93
2022/03/03 05:02:13;;;;;;;14.80;8.53;;;;;;;2.36;67.87;96678.69;5074366;28;20228;-91
2022/03/03 05:05:33;;;;;;;13.57;8.37;;;;;;;2.39;67.97;96691.38;5053144;28;20798;-95
2022/03/03 05:08:54;;;;;;;16.20;8.57;;;;;;;2.34;67.33;96680.44;5038267;28;20193;-92
2022/03/03 05:12:15;;;;;;;14.17;9.37;;;;;;;2.27;67.27;96666.09;5023283;28;20185;-92
2022/03/03 05:15:36;;;;;;;14.63;8.40;;;;;;;2.49;66.86;96687.78;5024226;28;20220;-91
2022/03/03 05:18:56;;;;;;;13.77;8.63;;;;;;;2.24;65.78;96645.72;5026458;28;20250;-93
2022/03/03 05:22:17;;;;;;;15.07;8.20;;;;;;;2.64;65.08;96684.06;5054536;28;20251;-91
2022/03/03 05:25:41;;;;;;;12.10;7.90;;;;;;;2.66;64.48;96663.63;5061508;28;20500;-90
2022/03/03 05:29:19;;;;;;;13.63;7.90;;;;;;;2.83;64.95;96667.47;5081658;28;20203;-91
2022/03/03 05:32:49;;;;;;;16.40;9.13;;;;;;;3.07;63.70;96669.47;5076978;28;20257;-92
2022/03/03 05:36:11;;;;;;;15.90;8.97;;;;;;;3.16;63.33;96679.53;5043962;28;20195;-90
2022/03/03 05:39:32;;;;;;;12.30;7.27;;;;;;;3.26;62.45;96686.09;5057055;28;20189;-91
2022/03/03 05:42:54;;;;;;;14.60;7.77;;;;;;;2.72;62.77;96585.06;5057750;28;20323;-90
2022/03/03 05:46:16;;;;;;;13.73;7.97;;;;;;;3.42;62.10;96684.03;5040090;28;20204;-91
2022/03/03 05:49:38;;;;;;;16.03;8.40;;;;;;;3.52;61.67;96680.38;5037058;28;20200;-92
2022/03/03 05:53:01;;;;;;;13.83;7.97;;;;;;;3.48;61.46;96667.69;5023731;28;20197;-91
2022/03/03 05:56:28;;;;;;;18.00;8.40;;;;;;;3.67;61.20;96689.41;5041085;28;20272;-91
2022/03/03 05:59:53;;;;;;;12.70;8.47;;;;;;;3.82;60.67;96692.44;5056210;28;20257;-91
2022/03/03 06:03:21;;;;;;;14.67;7.63;;;;;;;3.94;60.35;96693.81;5068841;28;20216;-91
2022/03/03 06:06:42;;;;;;;11.73;7.77;;;;;;;4.03;59.95;96675.69;5076213;28;20283;-91
2022/03/03 06:10:03;;;;;;;11.83;7.87;;;;;;;3.94;59.88;96679.31;5059508;28;20644;-90
2022/03/03 06:13:25;;;;;;;12.03;7.47;;;;;;;4.14;60.32;96699.31;5083652;28;20982;-90
2022/03/03 06:16:47;;;;;;;11.00;8.10;;;;;;;4.39;59.51;96689.25;5051013;28;20728;-91
2022/03/03 06:20:08;;;;;;;11.60;7.37;;;;;;;4.55;58.40;96700.75;5058017;28;20184;-91
2022/03/03 06:23:31;;;;;;;11.23;8.07;;;;;;;4.60;58.71;96688.63;5057755;28;20216;-90
2022/03/03 06:26:54;;;;;;;13.40;8.43;;;;;;;4.47;58.10;96689.88;5057727;28;20204;-91
2022/03/03 06:30:17;;;;;;;14.17;7.97;;;;;;;4.43;58.52;96708.78;5039357;28;20258;-92
2022/03/03 06:33:40;;;;;;;14.20;9.13;;;;;;;4.43;58.82;96704.47;5064603;28;20203;-93
2022/03/03 06:37:10;;;;;;;17.53;11.10;;;;;;;4.64;58.15;96709.00;5047132;28;20188;-92
2022/03/03 06:40:35;;;;;;;19.57;14.10;;;;;;;4.53;59.13;96721.31;5066014;28;20197;-92
2022/03/03 06:43:59;;;;;;;17.03;11.37;;;;;;;4.47;58.59;96672.75;5064100;28;20265;-93
2022/03/03 06:47:20;;;;;;;14.90;10.20;;;;;;;5.06;57.86;96724.06;5047000;28;20211;-92
2022/03/03 06:50:42;;;;;;;13.23;7.63;;;;;;;5.24;57.21;96726.09;5061746;28;20201;-92
2022/03/03 06:54:06;;;;;;;12.17;7.97;;;;;;;4.95;57.57;96704.69;5043830;28;20217;-93
2022/03/03 06:57:30;;;;;;;10.93;7.47;;;;;;;5.33;57.25;96733.53;5064837;28;20235;-93
2022/03/03 07:00:52;;;;;;;13.67;7.93;;;;;;;5.69;56.93;96740.94;5042321;28;20190;-94
2022/03/03 07:04:13;;;;;;;21.93;11.73;;;;;;;5.82;56.38;96749.09;5024110;28;20190;-92
2022/03/03 07:07:37;;;;;;;13.43;7.83;;;;;;;5.44;55.84;96739.19;5039218;28;20240;-89
2022/03/03 07:10:59;;;;;;;13.87;7.93;;;;;;;5.07;56.56;96689.84;5040433;28;20211;-91
2022/03/03 07:14:20;;;;;;;13.20;8.10;;;;;;;5.25;56.54;96712.38;5031684;28;20191;-89
2022/03/03 07:17:27;;;;;;;9.33;6.70;;;;;;;5.40;57.45;96747.88;5024335;28;20212;-91
2022/03/03 07:20:46;;;;;;;11.67;7.60;;;;;;;5.61;56.88;96742.91;5022000;28;20610;-91
2022/03/03 07:24:09;;;;;;;12.77;8.07;;;;;;;5.65;56.04;96743.63;5038924;28;20577;-92
2022/03/03 07:27:30;;;;;;;17.93;9.57;;;;;;;5.59;57.23;96734.41;5041610;28;20182;-91
2022/03/03 07:30:52;;;;;;;13.30;9.37;;;;;;;5.43;57.18;96737.47;5024741;28;20235;-90
2022/03/03 07:34:14;;;;;;;16.63;10.83;;;;;;;5.25;57.76;96748.31;5046007;28;20204;-92
2022/03/03 07:37:38;;;;;;;11.63;8.10;;;;;;;5.03;58.44;96716.47;5040274;28;20782;-90
2022/03/03 07:40:59;;;;;;;18.03;9.43;;;;;;;5.19;57.91;96740.78;5073584;28;20563;-91
2022/03/03 07:44:19;;;;;;;14.10;8.43;;;;;;;5.24;57.76;96728.66;5042758;28;20649;-92
2022/03/03 07:47:43;;;;;;;12.43;7.73;;;;;;;4.98;57.28;96693.50;5042545;28;20263;-90
2022/03/03 07:51:06;;;;;;;10.00;6.67;;;;;;;5.14;57.62;96747.78;5055910;28;20190;-91
2022/03/03 07:54:26;;;;;;;11.60;6.97;;;;;;;5.24;58.03;96726.94;5074817;28;20981;-91
2022/03/03 07:57:47;;;;;;;11.10;7.30;;;;;;;5.51;58.14;96746.63;5059297;28;20191;-90
2022/03/03 08:01:08;;;;;;;14.83;7.60;;;;;;;5.63;56.86;96750.53;5056723;28;20217;-89
2022/03/03 08:04:29;;;;;;;10.57;7.03;;;;;;;5.78;56.36;96752.66;5040268;28;20453;-91
2022/03/03 08:07:52;;;;;;;10.40;6.90;;;;;;;5.55;56.04;96737.09;5057641;28;20190;-91
2022/03/03 08:11:23;;;;;;;10.87;7.80;;;;;;;5.25;56.60;96671.31;5056643;28;20227;-91
2022/03/03 08:14:44;;;;;;;13.30;8.93;;;;;;;5.78;56.38;96750.06;5013109;28;20268;-91
2022/03/03 08:18:07;;;;;;;14.57;8.10;;;;;;;5.79;55.71;96746.59;4982815;28;20267;-92
2022/03/03 08:21:28;;;;;;;9.37;7.40;;;;;;;5.80;56.50;96758.56;5018179;28;20211;-91
2022/03/03 08:24:51;;;;;;;14.07;8.57;;;;;;;5.96;56.19;96734.09;5032496;28;20211;-90
2022/03/03 08:27:33;;;;;;;15.43;8.73;;;;;;;6.01;56.66;96749.38;5013435;28;20279;-90
2022/03/03 08:30:03;;;;;;;12.37;8.33;;;;;;;6.08;55.75;96753.44;5012079;28;20201;-93
2022/03/03 08:32:39;;;;;;;14.87;10.03;;;;;;;6.10;56.16;96747.31;4982782;28;20204;-92
2022/03/03 08:35:18;;;;;;;11.60;8.00;;;;;;;6.38;55.73;96768.69;4981551;28;20255;-93
2022/03/03 08:38:03;;;;;;;9.23;6.77;;;;;;;5.87;56.02;96713.84;4994156;28;20196;-92
2022/03/03 08:40:44;;;;;;;12.07;8.57;;;;;;;6.36;56.22;96757.59;5003845;28;20212;-92
2022/03/03 08:43:40;;;;;;;23.43;9.50;;;;;;;6.46;54.53;96729.84;4986803;28;20557;-93
2022/03/03 08:46:22;;;;;;;16.00;8.27;;;;;;;6.46;53.61;96737.53;4981885;28;20213;-95
2022/03/03 08:49:20;;;;;;;11.10;8.07;;;;;;;6.47;54.52;96758.06;5015922;28;20196;-93
2022/03/03 08:52:43;;;;;;;13.47;7.80;;;;;;;6.76;54.17;96753.66;5014603;28;20212;-91
2022/03/03 08:55:13;;;;;;;11.70;7.80;;;;;;;6.38;53.96;96688.97;4979869;28;20206;-90
2022/03/03 08:57:45;;;;;;;14.00;8.73;;;;;;;6.46;53.21;96750.41;4984061;28;20202;-91
2022/03/03 09:00:21;;;;;;;14.27;8.03;;;;;;;6.39;53.75;96718.91;4998672;28;20202;-93
2022/03/03 09:02:52;;;;;;;11.07;7.83;;;;;;;6.58;52.66;96743.13;4982572;28;20256;-92
2022/03/03 09:05:40;;;;;;;11.90;7.97;;;;;;;6.49;53.15;96717.69;5052018;28;20189;-88
2022/03/03 09:08:11;;;;;;;11.93;8.80;;;;;;;6.89;52.88;96744.59;5017482;28;20204;-90
2022/03/03 09:10:40;;;;;;;12.97;8.37;;;;;;;6.66;51.66;96752.31;5035538;28;20197;-92
2022/03/03 09:13:12;;;;;;;12.80;8.53;;;;;;;6.43;52.15;96730.78;5066446;28;20266;-92
2022/03/03 09:15:40;;;;;;;12.50;8.40;;;;;;;6.92;51.67;96762.50;5036122;28;20188;-93
2022/03/03 09:18:15;;;;;;;15.03;8.73;;;;;;;6.79;52.39;96738.09;5050875;28;20201;-92
2022/03/03 09:20:48;;;;;;;11.33;7.70;;;;;;;6.63;52.53;96760.97;5033233;28;20251;-92
2022/03/03 09:23:43;;;;;;;14.00;8.83;;;;;;;6.52;53.43;96761.34;5004635;28;20242;-94
2022/03/03 09:26:12;;;;;;;12.03;7.40;;;;;;;5.97;53.27;96656.13;5012077;28;20197;-92
2022/03/03 09:28:56;;;;;;;15.23;8.50;;;;;;;6.05;51.96;96691.84;5025488;28;20208;-93
2022/03/03 09:31:51;;;;;;;14.20;7.70;;;;;;;6.24;51.09;96703.19;5008074;28;20252;-93
2022/03/03 09:34:45;;;;;;;10.57;7.90;;;;;;;6.80;51.67;96763.75;5053475;28;20193;-90
2022/03/03 09:37:35;;;;;;;11.07;6.73;;;;;;;6.72;51.37;96752.91;5039111;28;20227;-91
2022/03/03 09:40:33;;;;;;;10.40;7.40;;;;;;;6.68;51.05;96760.81;5028194;28;20196;-92
2022/03/03 09:44:10;;;;;;;12.47;7.27;;;;;;;6.90;51.13;96748.84;5045707;28;20186;-93
2022/03/03 09:47:56;;;;;;;9.70;6.70;;;;;;;7.16;50.79;96747.00;5036155;28;20203;-94
2022/03/03 09:51:12;;;;;;;9.60;6.80;;;;;;;6.95;49.02;96688.59;4955110;29;20605;-92
2022/03/03 09:53:56;;;;;;;14.67;7.67;;;;;;;7.36;48.86;96746.25;4920805;28;20293;-92
2022/03/03 09:57:17;;;;;;;14.00;8.43;;;;;;;7.33;48.33;96724.03;5023413;28;20600;-91
2022/03/03 09:59:57;;;;;;;10.63;7.37;;;;;;;7.16;47.90;96720.41;5033864;28;20575;-93
2022/03/03 10:02:30;;;;;;;8.60;6.47;;;;;;;6.86;48.09;96662.34;5037799;28;20288;-90
2022/03/03 10:05:27;;;;;;;11.43;6.30;;;;;;;6.81;47.75;96693.41;5019780;28;20191;-92
2022/03/03 10:08:24;;;;;;;10.97;7.40;;;;;;;6.63;48.12;96649.50;5027730;28;20578;-93
2022/03/03 10:11:04;;;;;;;10.50;6.67;;;;;;;6.89;48.64;96742.84;5005954;28;20191;-92
2022/03/03 10:13:52;;;;;;;12.87;8.07;;;;;;;6.81;48.31;96736.31;4987017;28;20272;-92
2022/03/03 10:16:29;;;;;;;11.40;7.70;;;;;;;7.08;48.88;96732.72;5004343;28;20291;-90
2022/03/03 10:19:11;;;;;;;11.17;6.57;;;;;;;7.31;47.72;96723.25;5017719;28;20205;-92
2022/03/03 10:21:48;;;;;;;8.80;6.73;;;;;;;7.66;46.24;96745.09;4989246;28;20234;-92
2022/03/03 10:24:43;;;;;;;9.67;7.47;;;;;;;7.37;46.91;96733.34;5011761;28;20253;-91
2022/03/03 10:27:31;;;;;;;7.47;6.00;;;;;;;7.49;46.61;96737.16;4996779;28;20201;-93
2022/03/03 10:37:35;;;;;;;10.67;6.67;;;;;;;7.23;49.01;96719.28;5088673;28;20204;-91
2022/03/03 10:40:17;;;;;;;10.60;6.77;;;;;;;7.80;47.29;96718.75;5070527;28;20770;-90
2022/03/03 10:42:54;;;;;;;8.83;5.70;;;;;;;7.44;46.35;96703.00;5050307;28;20236;-93
2022/03/03 10:45:26;;;;;;;7.90;5.50;;;;;;;7.31;45.86;96683.78;5045750;28;20199;-92
2022/03/03 10:48:06;;;;;;;8.07;6.03;;;;;;;7.12;47.47;96703.41;5046127;28;20197;-92
2022/03/03 10:50:54;;;;;;;8.00;5.70;;;;;;;7.34;47.43;96711.97;5059649;28;20205;-94
2022/03/03 10:53:35;;;;;;;11.50;7.50;;;;;;;7.45;47.28;96717.56;5058658;28;20212;-93
2022/03/03 10:57:03;;;;;;;9.63;6.90;;;;;;;7.45;47.42;96715.00;5080117;28;20206;-91
2022/03/03 10:59:55;;;;;;;8.17;5.80;;;;;;;7.84;45.85;96713.44;5071585;28;20581;-92
2022/03/03 11:02:27;;;;;;;9.63;6.07;;;;;;;7.99;44.66;96670.72;5060992;28;20236;-92
2022/03/03 11:05:09;;;;;;;7.90;5.50;;;;;;;7.78;44.59;96664.69;5050729;28;20204;-92
2022/03/03 11:08:00;;;;;;;8.30;5.70;;;;;;;8.07;44.09;96697.88;5081924;28;20283;-94
2022/03/03 11:10:35;;;;;;;9.73;5.57;;;;;;;8.35;43.51;96722.50;5063348;28;20188;-92
2022/03/03 11:13:07;;;;;;;9.60;5.80;;;;;;;8.29;43.46;96709.88;5065913;28;20200;-93
2022/03/03 11:15:43;;;;;;;9.83;5.90;;;;;;;8.13;43.96;96689.03;5062843;28;20298;-95
2022/03/03 11:18:30;;;;;;;5.80;5.00;;;;;;;8.28;42.87;96700.47;5030976;28;20292;-93
2022/03/03 11:21:05;;;;;;;8.43;5.57;;;;;;;8.24;43.76;96679.91;5041649;28;20212;-94
2022/03/03 11:23:40;;;;;;;8.70;5.97;;;;;;;8.26;43.81;96700.56;5023051;28;20241;-95
2022/03/03 11:26:33;;;;;;;7.50;5.20;;;;;;;8.27;44.83;96691.03;5057777;28;20209;-92
2022/03/03 11:29:13;;;;;;;9.77;6.57;;;;;;;8.17;43.52;96698.31;5037808;28;20200;-92
2022/03/03 11:32:07;;;;;;;9.23;5.90;;;;;;;7.39;43.89;96625.09;5055749;28;20328;-92
2022/03/03 11:35:26;;;;;;;9.33;5.83;;;;;;;7.43;44.54;96696.19;5057378;28;20292;-93
2022/03/03 11:37:55;;;;;;;12.33;6.80;;;;;;;7.28;44.51;96666.72;5018846;28;20712;-92
2022/03/03 11:40:24;;;;;;;12.00;7.50;;;;;;;7.53;43.30;96670.88;5039490;28;20945;-93
2022/03/03 11:42:53;;;;;;;8.20;6.27;;;;;;;7.88;43.90;96693.50;5039746;28;20259;-92
2022/03/03 11:45:34;;;;;;;7.43;5.20;;;;;;;7.74;43.10;96688.06;5074673;28;20558;-90
2022/03/03 11:48:15;;;;;;;7.30;5.57;;;;;;;7.52;44.22;96707.88;5059953;28;20240;-92
2022/03/03 11:50:45;;;;;;;7.87;4.80;;;;;;;7.36;44.07;96703.31;5042296;28;20322;-93
2022/03/03 11:53:49;;;;;;;6.87;4.60;;;;;;;7.09;44.79;96673.44;5033935;28;20192;-93
2022/03/03 11:56:19;;;;;;;8.27;4.83;;;;;;;7.19;45.59;96681.69;5046391;28;20749;-89
2022/03/03 11:59:13;;;;;;;6.17;4.37;;;;;;;6.92;44.68;96673.28;5065848;28;20213;-93
2022/03/03 12:02:04;;;;;;;4.80;3.73;;;;;;;7.08;43.88;96686.38;5062494;28;20232;-92
2022/03/03 12:04:34;;;;;;;5.60;4.40;;;;;;;7.32;43.08;96693.16;5058949;28;20700;-92
2022/03/03 12:07:01;;;;;;;6.80;4.70;;;;;;;7.03;44.12;96634.22;5040536;28;20223;-91
2022/03/03 12:09:38;;;;;;;11.37;5.27;;;;;;;7.57;43.92;96693.91;5065706;28;20189;-91
2022/03/03 12:12:14;;;;;;;9.47;5.90;;;;;;;7.60;43.38;96682.63;5085754;28;20203;-92
2022/03/03 12:14:58;;;;;;;12.00;6.50;;;;;;;7.71;43.68;96695.91;5075441;28;20202;-90
2022/03/03 12:17:58;;;;;;;7.10;5.10;;;;;;;7.60;43.26;96693.78;5081658;28;20219;-93
2022/03/03 12:20:37;;;;;;;7.87;5.87;;;;;;;7.33;45.14;96618.44;5078714;28;20200;-92
2022/03/03 12:23:30;;;;;;;8.00;4.77;;;;;;;7.78;43.61;96685.31;5078086;28;20220;-94
2022/03/03 12:26:02;;;;;;;8.00;4.57;;;;;;;7.64;43.35;96700.50;5062831;28;20184;-92
2022/03/03 12:28:49;;;;;;;10.47;5.43;;;;;;;7.37;44.17;96692.13;5092525;28;20200;-92
2022/03/03 12:31:39;;;;;;;8.80;5.17;;;;;;;7.39;44.22;96679.16;5075935;28;20882;-93
2022/03/03 12:34:14;;;;;;;5.77;4.57;;;;;;;7.47;43.25;96677.13;5066318;28;20203;-93
2022/03/03 12:36:56;;;;;;;7.87;5.03;;;;;;;7.47;42.88;96677.13;5069151;28;20692;-90
2022/03/03 12:39:26;;;;;;;8.13;5.00;;;;;;;7.10;44.31;96604.78;4994538;28;20191;-93
2022/03/03 12:42:05;;;;;;;10.00;6.33;;;;;;;7.48;43.91;96647.88;5022589;28;20244;-93
2022/03/03 12:44:42;;;;;;;8.33;6.27;;;;;;;7.69;43.64;96657.34;5032503;28;20186;-91
2022/03/03 12:47:18;;;;;;;12.67;6.97;;;;;;;8.03;42.99;96688.59;5017605;28;20205;-91
2022/03/03 12:50:25;;;;;;;9.47;6.40;;;;;;;8.08;43.21;96678.91;5007863;28;20230;-92
2022/03/03 12:53:52;;;;;;;14.23;7.33;;;;;;;7.89;43.38;96690.88;5045227;28;20186;-91
2022/03/03 12:56:31;;;;;;;5.73;4.57;;;;;;;7.33;44.26;96679.41;5051565;28;20182;-93
2022/03/03 12:59:02;;;;;;;7.07;5.00;;;;;;;7.23;44.54;96696.13;4998723;28;20193;-92
2022/03/03 13:01:57;;;;;;;7.53;5.10;;;;;;;7.23;45.07;96680.66;5016742;28;20202;-94
2022/03/03 13:04:32;;;;;;;8.30;5.53;;;;;;;7.18;45.66;96686.00;5018845;28;20259;-93
2022/03/03 13:07:21;;;;;;;7.93;5.30;;;;;;;7.18;46.31;96685.16;5021832;28;20288;-92
2022/03/03 13:09:59;;;;;;;7.63;4.63;;;;;;;7.12;44.95;96680.22;5001331;28;20204;-93
2022/03/03 13:12:44;;;;;;;6.80;5.03;;;;;;;7.21;45.82;96697.91;5049952;28;20201;-92
2022/03/03 13:15:35;;;;;;;6.17;5.00;;;;;;;6.93;46.85;96692.09;5002747;28;20750;-92
2022/03/03 13:18:27;;;;;;;15.23;5.97;;;;;;;6.98;47.39;96691.06;5033238;28;20347;-91
2022/03/03 13:21:12;;;;;;;7.10;5.10;;;;;;;6.67;47.21;96653.63;5021663;28;20311;-93
2022/03/03 13:23:55;;;;;;;10.80;6.07;;;;;;;6.72;49.44;96691.16;5004831;28;20243;-92
2022/03/03 13:26:49;;;;;;;10.23;5.87;;;;;;;6.64;48.94;96712.91;5017601;28;20558;-92
2022/03/03 13:29:26;;;;;;;9.73;5.97;;;;;;;6.55;48.59;96691.75;5002884;28;20285;-93
2022/03/03 13:32:15;;;;;;;8.23;5.73;;;;;;;6.18;49.30;96657.94;5055670;28;20796;-92
2022/03/03 13:34:45;;;;;;;12.83;7.27;;;;;;;6.21;49.16;96662.13;5054150;28;20218;-92
2022/03/03 13:37:17;;;;;;;10.27;5.47;;;;;;;6.05;49.80;96658.41;5059472;28;20205;-91
2022/03/03 13:39:46;;;;;;;7.80;5.60;;;;;;;6.19;50.43;96699.91;5038025;28;20970;-94
2022/03/03 13:42:38;;;;;;;9.10;5.40;;;;;;;6.25;50.20;96715.97;5056542;28;20649;-93
2022/03/03 13:45:25;;;;;;;11.90;7.07;;;;;;;5.97;50.64;96683.53;5058280;28;20210;-94
2022/03/03 13:48:33;;;;;;;12.60;7.40;;;;;;;6.27;51.99;96719.34;5058750;28;20732;-93
2022/03/03 13:51:20;;;;;;;10.20;7.30;;;;;;;6.28;51.75;96717.63;5059827;28;20188;-91